Terminal Aerodrome Forecast
Issued by NWS Shreveport, LA

Home | Current Version | Previous Version | Text Only | Print | Product List | Glossary On
Versions: 1 2 3 4 5 6 7 8 9 10 11 12 13 14 15 16 17 18 19 20 21 22
723
FTUS44 KSHV 222039 AAA
TAFGGG
TAF AMD
KGGG 222039Z 2221/2318 05005KT P6SM BKN009 OVC014
     FM230600 02003KT 4SM BR OVC015
      TEMPO 2308/2312 2SM BR OVC010
     FM231500 33005KT P6SM VCSH OVC015=

USA.gov is the U.S. government's official web portal to all federal, state and local government web resources and services.